Time;durP1;ratioP1;P1;durP2;ratioP2;P2;SDS_P1;SDS_P2;PMS_P1;PMS_P2;Temp;Humidity;BMP_temperature;BMP_pressure;BME280_temperature;BME280_humidity;BME280_pressure;Samples;Min_cycle;Max_cycle;Signal;HPM_P1;HPM_P2
2021/05/21 00:00:35;;;;;;;2.17;2.07;;;11.70;99.90;;;;;;4894751;29;20187;-67
2021/05/21 00:03:04;;;;;;;2.87;2.50;;;11.70;99.90;;;;;;4895231;29;20436;-67
2021/05/21 00:05:29;;;;;;;2.33;2.23;;;11.60;99.90;;;;;;4895154;29;20171;-67
2021/05/21 00:07:55;;;;;;;3.10;2.90;;;11.60;99.90;;;;;;4895125;29;20550;-67
2021/05/21 00:10:20;;;;;;;3.10;2.43;;;11.60;99.90;;;;;;4894994;29;20585;-68
2021/05/21 00:12:46;;;;;;;2.53;2.20;;;11.60;99.90;;;;;;4895231;29;20183;-68
2021/05/21 00:15:13;;;;;;;2.77;2.47;;;11.50;99.90;;;;;;4895448;29;20242;-67
2021/05/21 00:17:38;;;;;;;2.70;2.50;;;11.50;99.90;;;;;;4895221;29;20262;-68
2021/05/21 00:20:05;;;;;;;4.07;2.30;;;11.50;99.90;;;;;;4897538;29;20530;-67
2021/05/21 00:22:30;;;;;;;3.13;2.50;;;11.50;99.90;;;;;;4899006;29;20285;-68
2021/05/21 00:24:56;;;;;;;3.57;3.30;;;11.50;99.90;;;;;;4898930;29;20534;-66
2021/05/21 00:27:22;;;;;;;2.53;2.33;;;11.60;99.90;;;;;;4898658;29;20707;-67
2021/05/21 00:29:47;;;;;;;3.23;2.30;;;11.60;99.90;;;;;;4898871;29;20187;-67
2021/05/21 00:32:13;;;;;;;2.43;2.30;;;11.60;99.90;;;;;;4898828;29;20650;-67
2021/05/21 00:34:38;;;;;;;3.23;2.33;;;11.60;99.90;;;;;;4898806;29;20191;-68
2021/05/21 00:37:04;;;;;;;2.87;2.67;;;11.50;99.90;;;;;;4898045;29;20194;-67
2021/05/21 00:39:29;;;;;;;2.40;2.30;;;11.50;99.90;;;;;;4898566;29;20210;-67
2021/05/21 00:41:55;;;;;;;2.60;2.40;;;11.50;99.90;;;;;;4898899;29;20183;-68
2021/05/21 00:44:21;;;;;;;2.43;2.23;;;11.40;99.90;;;;;;4898731;29;20342;-68
2021/05/21 00:46:46;;;;;;;2.67;2.50;;;11.40;99.90;;;;;;4898426;29;20233;-67
2021/05/21 00:49:17;;;;;;;2.57;2.37;;;11.50;99.90;;;;;;4898668;29;20580;-67
2021/05/21 00:51:46;;;;;;;2.73;2.40;;;11.50;99.90;;;;;;4898627;29;20557;-66
2021/05/21 00:54:15;;;;;;;3.43;2.40;;;11.50;99.90;;;;;;4898601;29;20479;-67
2021/05/21 00:56:42;;;;;;;2.30;2.10;;;11.50;99.90;;;;;;4898283;29;20470;-68
2021/05/21 00:59:08;;;;;;;4.07;2.17;;;11.40;99.90;;;;;;4897970;29;20460;-66
2021/05/21 01:01:33;;;;;;;2.87;2.60;;;11.40;99.90;;;;;;4898105;29;20439;-67
2021/05/21 01:03:59;;;;;;;2.00;1.90;;;11.30;99.90;;;;;;4887113;29;20677;-68
2021/05/21 01:06:25;;;;;;;2.60;2.30;;;11.30;99.90;;;;;;4891004;29;20223;-67
2021/05/21 01:08:50;;;;;;;3.57;2.37;;;11.30;99.90;;;;;;4887212;29;20283;-67
2021/05/21 01:11:16;;;;;;;8.30;2.70;;;11.30;99.90;;;;;;4890767;29;20185;-67
2021/05/21 01:13:42;;;;;;;2.20;2.00;;;11.20;99.90;;;;;;4887825;29;20180;-67
2021/05/21 01:16:07;;;;;;;2.80;2.60;;;11.20;99.90;;;;;;4887553;29;20219;-68
2021/05/21 01:18:33;;;;;;;2.60;1.87;;;11.20;99.90;;;;;;4885955;29;20206;-67
2021/05/21 01:20:59;;;;;;;2.73;2.50;;;11.20;99.90;;;;;;4885880;29;20203;-67
2021/05/21 01:23:25;;;;;;;2.27;2.07;;;11.20;99.90;;;;;;4893149;29;20491;-68
2021/05/21 01:25:51;;;;;;;2.00;1.90;;;11.20;99.90;;;;;;4891263;29;20187;-68
2021/05/21 01:28:18;;;;;;;4.90;2.47;;;11.20;99.90;;;;;;4880395;29;20463;-68
2021/05/21 01:30:44;;;;;;;2.27;1.77;;;11.30;99.90;;;;;;4885400;29;20432;-68
2021/05/21 01:33:11;;;;;;;2.10;1.93;;;11.30;99.90;;;;;;4880499;29;20436;-67
2021/05/21 01:35:37;;;;;;;2.67;2.10;;;11.30;99.90;;;;;;4891173;29;20522;-68
2021/05/21 01:38:03;;;;;;;3.40;2.17;;;11.30;99.90;;;;;;4893283;29;20473;-67
2021/05/21 01:40:30;;;;;;;2.00;1.83;;;11.30;99.90;;;;;;4888452;29;20818;-67
2021/05/21 01:42:56;;;;;;;2.37;2.20;;;11.20;99.90;;;;;;4892445;29;20211;-67
2021/05/21 01:45:23;;;;;;;2.50;1.90;;;11.20;99.90;;;;;;4886840;29;20443;-68
2021/05/21 01:47:49;;;;;;;2.17;2.07;;;11.20;99.90;;;;;;4880923;29;20558;-68
2021/05/21 01:50:15;;;;;;;2.93;2.27;;;11.20;99.90;;;;;;4879265;29;20440;-67
2021/05/21 01:52:43;;;;;;;1.90;1.80;;;11.20;99.90;;;;;;4891818;29;20436;-67
2021/05/21 01:55:09;;;;;;;2.37;2.17;;;11.20;99.90;;;;;;4896174;29;21174;-67
2021/05/21 01:57:36;;;;;;;2.53;2.23;;;11.20;99.90;;;;;;4882151;29;20444;-68
2021/05/21 02:00:04;;;;;;;2.60;2.40;;;11.10;99.90;;;;;;4892443;29;21004;-68
2021/05/21 02:02:29;;;;;;;2.00;1.90;;;11.10;99.90;;;;;;4889243;29;20962;-67
2021/05/21 02:04:55;;;;;;;1.73;1.60;;;11.10;99.90;;;;;;4883290;29;20435;-67
2021/05/21 02:07:20;;;;;;;2.20;2.00;;;11.10;99.90;;;;;;4887088;29;20214;-67
2021/05/21 02:10:01;;;;;;;3.10;2.53;;;11.10;99.90;;;;;;4894804;29;20203;-68
2021/05/21 02:12:28;;;;;;;2.50;2.30;;;11.10;99.90;;;;;;4892224;29;20293;-68
2021/05/21 02:14:56;;;;;;;1.83;1.73;;;11.10;99.90;;;;;;4893271;29;20491;-67
2021/05/21 02:17:22;;;;;;;2.37;2.17;;;11.10;99.90;;;;;;4889972;29;20438;-67
2021/05/21 02:19:48;;;;;;;2.17;1.90;;;11.10;99.90;;;;;;4894646;29;20970;-68
2021/05/21 02:22:17;;;;;;;3.03;2.40;;;11.10;99.90;;;;;;4895667;29;20559;-66
2021/05/21 02:24:43;;;;;;;2.00;1.90;;;11.10;99.90;;;;;;4883284;29;20865;-68
2021/05/21 02:27:08;;;;;;;2.10;2.00;;;11.10;99.90;;;;;;4895810;29;20471;-67
2021/05/21 02:29:34;;;;;;;3.23;1.97;;;11.10;99.90;;;;;;4894106;29;20199;-68
2021/05/21 02:31:59;;;;;;;2.40;2.20;;;11.10;99.90;;;;;;4892123;29;20270;-67
2021/05/21 02:34:25;;;;;;;3.23;1.97;;;11.10;99.90;;;;;;4885961;29;20646;-67
2021/05/21 02:36:50;;;;;;;2.17;1.97;;;11.10;99.90;;;;;;4880575;29;20239;-67
2021/05/21 02:39:16;;;;;;;1.80;1.70;;;11.00;99.90;;;;;;4884800;29;20310;-66
2021/05/21 02:41:42;;;;;;;5.67;2.10;;;11.00;99.90;;;;;;4886616;29;20255;-67
2021/05/21 02:44:07;;;;;;;2.00;1.90;;;10.90;99.90;;;;;;4896151;29;20190;-67
2021/05/21 02:46:33;;;;;;;4.23;1.87;;;10.90;99.90;;;;;;4896529;29;20191;-68
2021/05/21 02:48:58;;;;;;;1.97;1.83;;;10.90;99.90;;;;;;4895860;29;20721;-68
2021/05/21 02:51:24;;;;;;;2.80;1.80;;;10.90;99.90;;;;;;4896543;29;20266;-67
2021/05/21 02:53:49;;;;;;;2.90;1.50;;;10.90;99.90;;;;;;4896500;29;20194;-68
2021/05/21 02:56:15;;;;;;;2.50;1.73;;;11.00;99.90;;;;;;4894982;29;20179;-67
2021/05/21 02:58:40;;;;;;;1.87;1.77;;;11.00;99.90;;;;;;4896112;29;20202;-67
2021/05/21 03:01:06;;;;;;;1.90;1.80;;;11.10;99.90;;;;;;4894705;29;20321;-67
2021/05/21 03:03:32;;;;;;;2.10;1.87;;;11.00;99.90;;;;;;4896124;29;20261;-67
2021/05/21 03:05:57;;;;;;;3.70;2.00;;;11.00;99.90;;;;;;4896155;29;20182;-68
2021/05/21 03:08:23;;;;;;;2.23;1.70;;;10.90;99.90;;;;;;4894823;29;20358;-67
2021/05/21 03:10:49;;;;;;;2.77;2.57;;;10.90;99.90;;;;;;4895804;29;20186;-68
2021/05/21 03:13:15;;;;;;;2.30;2.10;;;10.80;99.90;;;;;;4896126;29;20441;-67
2021/05/21 03:15:42;;;;;;;2.10;1.90;;;10.80;99.90;;;;;;4895919;29;20186;-67
2021/05/21 03:18:18;;;;;;;2.87;1.93;;;10.80;99.90;;;;;;4895627;29;20823;-67
2021/05/21 03:20:44;;;;;;;2.10;1.73;;;10.80;99.90;;;;;;4895740;29;20960;-67
2021/05/21 03:23:10;;;;;;;1.80;1.70;;;10.90;99.90;;;;;;4895681;29;20442;-68
2021/05/21 03:25:37;;;;;;;3.43;1.60;;;10.80;99.90;;;;;;4895436;29;20498;-66
2021/05/21 03:28:03;;;;;;;1.50;1.40;;;10.80;99.90;;;;;;4895638;29;20474;-66
2021/05/21 03:30:29;;;;;;;1.90;1.80;;;10.80;99.90;;;;;;4895455;29;20439;-66
2021/05/21 03:32:54;;;;;;;1.93;1.83;;;10.70;99.90;;;;;;4895677;29;20949;-66
2021/05/21 03:35:20;;;;;;;1.83;1.50;;;10.70;99.90;;;;;;4895578;29;20179;-67
2021/05/21 03:37:45;;;;;;;2.70;2.20;;;10.70;99.90;;;;;;4895338;29;20223;-67
2021/05/21 03:40:12;;;;;;;2.60;1.93;;;10.70;99.90;;;;;;4895696;29;20183;-66
2021/05/21 03:42:37;;;;;;;2.63;2.13;;;10.70;99.90;;;;;;4895915;29;20215;-67
2021/05/21 03:45:05;;;;;;;2.57;2.37;;;10.70;99.90;;;;;;4895179;29;20473;-67
2021/05/21 03:47:30;;;;;;;1.80;1.70;;;10.60;99.90;;;;;;4895163;29;20269;-66
2021/05/21 03:49:56;;;;;;;1.77;1.67;;;10.60;99.90;;;;;;4895235;29;20434;-67
2021/05/21 03:52:22;;;;;;;2.43;1.90;;;10.60;99.90;;;;;;4895669;29;20179;-67
2021/05/21 03:54:47;;;;;;;1.73;1.63;;;10.60;99.90;;;;;;4895246;29;20270;-65
2021/05/21 03:57:13;;;;;;;1.50;1.40;;;10.60;99.90;;;;;;4895762;29;20206;-67
2021/05/21 03:59:38;;;;;;;1.60;1.50;;;10.60;99.90;;;;;;4894766;29;20210;-66
2021/05/21 04:02:04;;;;;;;1.70;1.60;;;10.60;99.90;;;;;;4895316;29;20179;-65
2021/05/21 04:04:29;;;;;;;2.20;2.00;;;10.60;99.90;;;;;;4895228;29;20179;-67
2021/05/21 04:06:55;;;;;;;2.23;2.00;;;10.60;99.90;;;;;;4894998;29;20261;-67
2021/05/21 04:09:20;;;;;;;2.37;1.33;;;10.70;99.90;;;;;;4895268;29;20190;-67
2021/05/21 04:11:46;;;;;;;1.77;1.67;;;10.70;99.90;;;;;;4895343;29;20179;-66
2021/05/21 04:14:11;;;;;;;1.60;1.50;;;10.70;99.90;;;;;;4895008;29;20258;-66
2021/05/21 04:16:37;;;;;;;1.83;1.73;;;10.70;99.90;;;;;;4895112;29;20191;-66
2021/05/21 04:19:03;;;;;;;1.83;1.73;;;10.70;99.90;;;;;;4894859;29;20278;-66
2021/05/21 04:21:28;;;;;;;1.50;1.40;;;10.70;99.90;;;;;;4895382;29;20183;-66
2021/05/21 04:23:55;;;;;;;1.57;1.47;;;10.80;99.90;;;;;;4894916;29;20543;-67
2021/05/21 04:26:21;;;;;;;3.00;1.63;;;10.80;99.90;;;;;;4895372;29;20199;-67
2021/05/21 04:28:50;;;;;;;2.43;1.63;;;10.80;99.90;;;;;;4894427;29;20462;-67
2021/05/21 04:31:17;;;;;;;1.63;1.53;;;10.90;99.90;;;;;;4895269;29;20442;-67
2021/05/21 04:33:43;;;;;;;2.03;1.50;;;10.90;99.90;;;;;;4894958;29;20442;-66
2021/05/21 04:36:09;;;;;;;3.10;1.70;;;10.90;99.90;;;;;;4895218;29;20431;-66
2021/05/21 04:38:34;;;;;;;2.17;1.80;;;11.00;99.90;;;;;;4892157;29;21008;-67
2021/05/21 04:41:00;;;;;;;2.50;1.70;;;11.00;99.90;;;;;;4894719;29;20183;-66
2021/05/21 04:43:26;;;;;;;2.43;1.80;;;11.00;99.90;;;;;;4895135;29;20178;-67
2021/05/21 04:45:53;;;;;;;1.77;1.50;;;11.00;99.90;;;;;;4895073;29;20218;-64
2021/05/21 04:48:19;;;;;;;1.63;1.53;;;11.10;99.90;;;;;;4894583;29;21142;-67
2021/05/21 04:50:45;;;;;;;2.00;1.63;;;11.10;99.90;;;;;;4894614;29;20443;-67
2021/05/21 04:53:11;;;;;;;1.77;1.67;;;11.20;99.90;;;;;;4895036;29;20431;-67
2021/05/21 04:55:37;;;;;;;1.97;1.33;;;11.20;99.90;;;;;;4894478;29;20446;-67
2021/05/21 04:58:02;;;;;;;3.30;2.07;;;11.30;99.90;;;;;;4895008;29;20467;-66
2021/05/21 05:00:28;;;;;;;4.23;1.70;;;11.30;99.90;;;;;;4894227;29;20191;-67
2021/05/21 05:02:54;;;;;;;5.43;1.97;;;11.40;99.90;;;;;;4894748;29;20179;-67
2021/05/21 05:05:20;;;;;;;1.70;1.60;;;11.40;99.90;;;;;;4896442;29;20585;-67
2021/05/21 05:07:46;;;;;;;2.27;2.07;;;11.50;99.90;;;;;;4898226;29;20211;-67
2021/05/21 05:10:11;;;;;;;3.27;2.00;;;11.60;99.90;;;;;;4898082;29;20179;-67
2021/05/21 05:12:38;;;;;;;1.90;1.63;;;11.70;99.90;;;;;;4898289;29;20456;-66
2021/05/21 05:15:04;;;;;;;1.60;1.40;;;11.80;99.90;;;;;;4898205;29;20175;-67
2021/05/21 05:17:30;;;;;;;5.30;1.70;;;11.80;99.90;;;;;;4897987;29;20454;-67
2021/05/21 05:19:55;;;;;;;1.80;1.70;;;11.90;99.90;;;;;;4897231;29;20486;-67
2021/05/21 05:22:21;;;;;;;2.07;1.50;;;12.00;99.90;;;;;;4898200;29;20187;-67
2021/05/21 05:24:47;;;;;;;3.70;1.37;;;12.10;99.90;;;;;;4897877;29;20261;-67
2021/05/21 05:27:12;;;;;;;2.40;1.50;;;12.20;99.90;;;;;;4898158;29;20374;-66
2021/05/21 05:29:38;;;;;;;1.73;1.50;;;12.30;99.90;;;;;;4897574;29;20735;-67
2021/05/21 05:32:04;;;;;;;1.70;1.60;;;12.40;99.90;;;;;;4897982;29;20183;-66
2021/05/21 05:34:29;;;;;;;2.50;1.57;;;12.40;99.90;;;;;;4897957;29;20176;-67
2021/05/21 05:36:55;;;;;;;1.50;1.40;;;12.50;99.90;;;;;;4897622;29;20186;-66
2021/05/21 05:39:21;;;;;;;1.40;1.30;;;12.50;99.90;;;;;;4897361;29;20652;-68
2021/05/21 05:41:50;;;;;;;1.40;1.30;;;12.60;99.90;;;;;;4898041;29;20183;-66
2021/05/21 05:44:20;;;;;;;2.63;1.40;;;12.60;99.90;;;;;;4892997;29;20439;-67
2021/05/21 05:46:46;;;;;;;1.57;1.17;;;12.70;99.90;;;;;;4897783;29;20459;-67
2021/05/21 05:49:11;;;;;;;2.20;1.43;;;12.80;99.90;;;;;;4897268;29;20463;-67
2021/05/21 05:51:37;;;;;;;4.77;1.60;;;12.90;99.90;;;;;;4897730;29;20183;-66
2021/05/21 05:54:03;;;;;;;1.97;1.40;;;12.90;99.90;;;;;;4897665;29;20186;-67
2021/05/21 05:56:29;;;;;;;4.87;1.80;;;13.00;99.90;;;;;;4897574;29;20175;-67
2021/05/21 05:58:54;;;;;;;1.43;1.33;;;13.00;99.90;;;;;;4897209;29;20451;-67
2021/05/21 06:01:20;;;;;;;1.90;1.70;;;13.10;99.90;;;;;;4897371;29;20262;-67
2021/05/21 06:03:45;;;;;;;4.13;1.90;;;13.10;99.90;;;;;;4897860;29;20547;-66
2021/05/21 06:06:11;;;;;;;1.37;1.27;;;13.30;99.90;;;;;;4897456;29;20729;-67
2021/05/21 06:08:37;;;;;;;2.87;1.70;;;13.40;99.90;;;;;;4897095;29;20586;-67
2021/05/21 06:11:02;;;;;;;1.37;1.33;;;13.40;99.90;;;;;;4897299;29;20183;-67
2021/05/21 06:13:28;;;;;;;1.43;1.33;;;13.50;99.90;;;;;;4897285;29;20183;-67
2021/05/21 06:15:54;;;;;;;1.70;1.60;;;13.50;99.90;;;;;;4896781;29;20182;-67
2021/05/21 06:18:20;;;;;;;1.80;1.37;;;13.60;99.90;;;;;;4897029;29;20195;-67
2021/05/21 06:20:46;;;;;;;3.43;1.70;;;13.70;99.90;;;;;;4896245;29;20187;-68
2021/05/21 06:23:12;;;;;;;1.30;1.20;;;13.80;99.90;;;;;;4869890;29;20455;-68
2021/05/21 06:28:10;;;;;;;4.37;2.00;;;13.90;99.90;;;;;;4896953;29;20638;-67
2021/05/21 06:30:36;;;;;;;3.00;1.60;;;13.90;99.90;;;;;;4895786;29;20506;-68
2021/05/21 06:33:02;;;;;;;1.80;1.63;;;13.90;99.90;;;;;;4889501;29;20949;-67
2021/05/21 06:35:27;;;;;;;1.73;1.40;;;13.90;99.90;;;;;;4884395;29;20519;-67
2021/05/21 06:37:54;;;;;;;3.10;1.33;;;13.90;99.90;;;;;;4887025;29;20986;-68
2021/05/21 06:40:20;;;;;;;2.57;1.40;;;13.90;99.90;;;;;;4897021;29;20243;-67
2021/05/21 06:42:46;;;;;;;2.70;1.40;;;13.90;99.90;;;;;;4892915;29;20449;-66
2021/05/21 06:45:12;;;;;;;3.30;1.90;;;13.90;99.90;;;;;;4888101;29;20443;-67
2021/05/21 06:47:37;;;;;;;4.10;2.83;;;14.00;99.90;;;;;;4881553;29;20474;-66
2021/05/21 06:50:04;;;;;;;1.63;1.53;;;14.00;99.90;;;;;;4892756;29;20435;-66
2021/05/21 06:52:29;;;;;;;2.00;1.80;;;14.00;99.90;;;;;;4883868;29;20180;-66
2021/05/21 06:54:55;;;;;;;2.27;1.40;;;14.10;99.90;;;;;;4894960;29;20447;-66
2021/05/21 06:57:20;;;;;;;2.90;1.60;;;14.10;99.90;;;;;;4893529;29;20197;-67
2021/05/21 06:59:46;;;;;;;3.70;2.20;;;14.10;99.90;;;;;;4892126;29;20207;-67
2021/05/21 07:02:12;;;;;;;4.00;2.07;;;14.30;99.90;;;;;;4889415;29;20231;-67
2021/05/21 07:04:37;;;;;;;1.37;1.27;;;14.30;99.90;;;;;;4890783;29;20669;-68
2021/05/21 07:07:03;;;;;;;2.63;1.53;;;14.30;99.90;;;;;;4893562;29;20226;-68
2021/05/21 07:09:29;;;;;;;1.30;1.20;;;14.30;99.90;;;;;;4893406;29;20202;-67
2021/05/21 07:11:54;;;;;;;3.13;2.20;;;14.30;99.90;;;;;;4884334;29;20199;-68
2021/05/21 07:14:20;;;;;;;3.57;1.90;;;14.30;99.90;;;;;;4891052;29;20563;-68
2021/05/21 07:16:46;;;;;;;4.27;1.97;;;14.30;99.90;;;;;;4893097;29;20670;-68
2021/05/21 07:19:17;;;;;;;4.30;1.60;;;14.40;99.90;;;;;;4892842;29;21052;-68
2021/05/21 07:21:42;;;;;;;3.43;1.43;;;14.40;99.90;;;;;;4888023;29;20194;-68
2021/05/21 07:24:08;;;;;;;3.00;1.57;;;14.50;99.90;;;;;;4899324;29;20505;-68
2021/05/21 07:26:34;;;;;;;1.80;1.70;;;14.50;99.90;;;;;;4892524;29;20669;-68
2021/05/21 07:29:00;;;;;;;5.13;1.93;;;14.50;99.90;;;;;;4890077;29;20211;-68
2021/05/21 07:31:27;;;;;;;1.80;1.67;;;14.50;99.90;;;;;;4888873;29;20175;-67
2021/05/21 07:33:54;;;;;;;3.03;1.67;;;14.50;99.90;;;;;;4892534;29;20482;-68
2021/05/21 07:36:20;;;;;;;2.00;1.90;;;14.60;99.90;;;;;;4892683;29;20454;-67
2021/05/21 07:38:46;;;;;;;1.63;1.30;;;14.60;99.90;;;;;;4891288;29;21119;-67
2021/05/21 07:41:12;;;;;;;1.60;1.50;;;14.50;99.90;;;;;;4879073;29;20740;-68
2021/05/21 07:43:38;;;;;;;2.20;2.00;;;14.50;99.90;;;;;;4885573;29;20457;-68
2021/05/21 07:46:03;;;;;;;3.37;2.23;;;14.60;99.90;;;;;;4884018;29;20191;-68
2021/05/21 07:48:29;;;;;;;2.23;1.60;;;14.60;99.90;;;;;;4881119;29;20274;-68
2021/05/21 07:50:54;;;;;;;2.33;1.90;;;14.70;99.90;;;;;;4889111;29;20198;-69
2021/05/21 07:53:21;;;;;;;2.10;1.77;;;14.70;99.90;;;;;;4891421;29;20266;-68
2021/05/21 07:55:47;;;;;;;3.50;1.27;;;14.80;99.90;;;;;;4895366;29;20185;-68
2021/05/21 07:58:14;;;;;;;2.20;1.50;;;14.80;99.90;;;;;;4895127;29;20466;-68
2021/05/21 08:00:39;;;;;;;4.93;1.30;;;14.80;99.90;;;;;;4876650;29;20444;-68
2021/05/21 08:03:05;;;;;;;2.90;1.70;;;14.90;99.90;;;;;;4893146;29;20808;-68
2021/05/21 08:05:31;;;;;;;9.03;1.60;;;15.00;99.90;;;;;;4894644;29;20179;-68
2021/05/21 08:07:57;;;;;;;4.00;1.90;;;15.00;99.90;;;;;;4890237;29;20709;-68
2021/05/21 08:10:22;;;;;;;1.90;1.80;;;15.00;99.90;;;;;;4894285;29;20668;-68
2021/05/21 08:12:48;;;;;;;3.43;1.80;;;15.00;99.90;;;;;;4891279;29;20609;-67
2021/05/21 08:15:14;;;;;;;1.83;1.73;;;14.90;99.90;;;;;;4895079;29;20174;-68
2021/05/21 08:17:39;;;;;;;3.00;1.63;;;15.00;99.90;;;;;;4895087;29;20596;-68
2021/05/21 08:20:06;;;;;;;2.10;1.90;;;15.10;99.90;;;;;;4893532;29;20179;-68
2021/05/21 08:22:31;;;;;;;2.47;1.53;;;15.20;99.90;;;;;;4887328;29;20563;-68
2021/05/21 08:24:57;;;;;;;1.90;1.73;;;15.20;99.90;;;;;;4896508;29;20506;-68
2021/05/21 08:27:23;;;;;;;3.77;1.57;;;15.20;99.90;;;;;;4891039;29;20211;-68
2021/05/21 08:29:48;;;;;;;2.10;1.40;;;15.20;99.90;;;;;;4881271;29;20195;-68
2021/05/21 08:32:14;;;;;;;3.00;1.90;;;15.20;99.90;;;;;;4888174;29;21601;-67
2021/05/21 08:34:39;;;;;;;1.53;1.43;;;15.20;99.90;;;;;;4891419;29;20183;-67
2021/05/21 08:37:05;;;;;;;3.53;1.40;;;15.20;99.90;;;;;;4894074;29;20179;-68
2021/05/21 08:39:31;;;;;;;2.40;1.37;;;15.10;99.90;;;;;;4891468;29;20210;-68
2021/05/21 08:41:59;;;;;;;2.80;2.20;;;15.10;99.90;;;;;;4888120;29;20277;-67
2021/05/21 08:44:26;;;;;;;12.03;4.27;;;15.20;99.90;;;;;;4898087;29;20190;-68
2021/05/21 08:46:53;;;;;;;1.87;1.77;;;15.20;99.90;;;;;;4898262;29;20566;-68
2021/05/21 08:49:19;;;;;;;5.40;3.17;;;15.20;99.90;;;;;;4895742;29;21058;-68
2021/05/21 08:51:45;;;;;;;1.47;1.37;;;15.20;99.90;;;;;;4895264;29;20833;-68
2021/05/21 08:54:11;;;;;;;2.57;1.47;;;15.20;99.90;;;;;;4895707;29;20817;-68
2021/05/21 08:56:37;;;;;;;1.83;1.60;;;15.30;99.90;;;;;;4894443;29;20518;-68
2021/05/21 08:59:03;;;;;;;4.90;1.43;;;15.30;99.90;;;;;;4898099;29;20494;-69
2021/05/21 09:01:28;;;;;;;2.67;1.40;;;15.30;99.90;;;;;;4894716;29;20557;-68
2021/05/21 09:04:00;;;;;;;3.50;1.60;;;15.40;99.90;;;;;;4895433;29;20229;-68
2021/05/21 09:06:26;;;;;;;4.87;1.37;;;15.40;99.90;;;;;;4895080;29;20754;-68
2021/05/21 09:08:57;;;;;;;3.03;2.00;;;15.40;99.90;;;;;;4897233;29;20490;-68
2021/05/21 09:11:30;;;;;;;1.97;1.87;;;15.40;99.90;;;;;;4894449;29;20499;-69
2021/05/21 09:14:07;;;;;;;1.80;1.33;;;15.40;99.90;;;;;;4895148;29;20463;-68
2021/05/21 09:16:35;;;;;;;3.00;1.27;;;15.40;99.90;;;;;;4898193;29;20450;-69
2021/05/21 09:19:19;;;;;;;2.13;1.53;;;15.40;99.90;;;;;;4897356;29;20830;-69
2021/05/21 09:22:06;;;;;;;1.23;1.13;;;15.40;99.90;;;;;;4894331;29;20443;-67
2021/05/21 09:24:37;;;;;;;1.90;1.50;;;15.40;99.90;;;;;;4890488;29;20443;-68
2021/05/21 09:27:05;;;;;;;2.60;1.20;;;15.30;99.90;;;;;;4890504;29;20501;-68
2021/05/21 09:29:35;;;;;;;4.73;1.43;;;15.30;99.90;;;;;;4894093;29;20462;-69
2021/05/21 09:32:01;;;;;;;1.70;1.33;;;15.30;99.90;;;;;;4893360;29;20979;-68
2021/05/21 09:34:32;;;;;;;2.13;1.03;;;15.30;99.90;;;;;;4893989;29;20471;-68
2021/05/21 09:36:58;;;;;;;3.70;2.07;;;15.30;99.90;;;;;;4884768;29;20495;-69
2021/05/21 09:39:23;;;;;;;1.77;1.67;;;15.30;99.90;;;;;;4889077;29;20485;-70
2021/05/21 09:41:52;;;;;;;2.40;1.40;;;15.30;99.90;;;;;;4893619;29;20454;-68
2021/05/21 09:44:18;;;;;;;2.47;1.30;;;15.30;99.90;;;;;;4886927;29;20672;-68
2021/05/21 09:46:49;;;;;;;4.80;1.37;;;15.30;99.90;;;;;;4890046;29;20513;-68
2021/05/21 09:49:34;;;;;;;2.40;1.20;;;15.30;99.90;;;;;;4885036;29;20898;-68
2021/05/21 09:52:05;;;;;;;2.30;1.10;;;15.20;99.90;;;;;;4890087;29;20463;-68
2021/05/21 09:54:50;;;;;;;2.90;1.20;;;15.20;99.90;;;;;;4893094;29;20431;-68
2021/05/21 09:57:16;;;;;;;0.93;0.93;;;15.20;99.90;;;;;;4886422;29;20436;-67
2021/05/21 09:59:46;;;;;;;1.10;1.00;;;15.30;99.90;;;;;;4883504;29;20466;-68
2021/05/21 10:02:19;;;;;;;1.40;1.30;;;15.30;99.90;;;;;;4891228;29;21688;-69
2021/05/21 10:04:46;;;;;;;1.50;1.37;;;15.20;99.90;;;;;;4881966;29;20927;-68
2021/05/21 10:07:12;;;;;;;4.10;1.27;;;15.20;99.90;;;;;;4893147;29;20554;-68
2021/05/21 10:09:39;;;;;;;1.63;1.53;;;15.20;99.90;;;;;;4896589;29;21009;-68
2021/05/21 10:12:06;;;;;;;1.07;1.07;;;15.10;99.90;;;;;;4890967;29;20435;-68
2021/05/21 10:14:32;;;;;;;1.57;1.30;;;15.00;99.90;;;;;;4887843;29;20950;-68
2021/05/21 10:16:59;;;;;;;1.33;1.20;;;15.00;99.90;;;;;;4891279;29;20443;-68
2021/05/21 10:19:26;;;;;;;1.47;1.00;;;14.90;99.90;;;;;;4895023;29;21000;-68
2021/05/21 10:21:53;;;;;;;1.40;1.27;;;15.00;99.90;;;;;;4891649;29;20451;-68
2021/05/21 10:24:20;;;;;;;2.37;1.43;;;15.00;99.90;;;;;;4895751;29;20482;-68
2021/05/21 10:26:52;;;;;;;3.10;1.20;;;15.00;99.90;;;;;;4896203;29;20538;-68
2021/05/21 10:29:24;;;;;;;1.77;1.20;;;15.00;99.90;;;;;;4896092;29;20486;-68
2021/05/21 10:31:51;;;;;;;2.40;1.37;;;15.00;99.90;;;;;;4891456;29;20450;-68
2021/05/21 10:34:21;;;;;;;1.63;1.50;;;15.00;99.90;;;;;;4896165;29;20438;-68
2021/05/21 10:36:48;;;;;;;1.80;1.70;;;15.00;99.90;;;;;;4895945;29;20479;-68
2021/05/21 10:39:18;;;;;;;2.50;1.23;;;15.10;99.90;;;;;;4890965;29;20479;-68
2021/05/21 10:42:00;;;;;;;1.87;1.10;;;15.10;99.90;;;;;;4883770;29;20447;-68
2021/05/21 10:44:36;;;;;;;1.10;1.10;;;15.20;99.90;;;;;;4888134;29;20922;-68
2021/05/21 10:47:17;;;;;;;6.87;2.33;;;15.20;99.90;;;;;;4905933;29;20520;-68
2021/05/21 10:50:03;;;;;;;12.90;7.93;;;15.30;99.90;;;;;;4890509;29;20875;-68
2021/05/21 10:52:50;;;;;;;40.30;21.30;;;15.40;99.90;;;;;;4866962;29;20440;-67
2021/05/21 10:55:16;;;;;;;8.23;4.63;;;15.40;99.90;;;;;;4886962;29;20520;-67
2021/05/21 10:57:56;;;;;;;18.43;12.40;;;15.50;99.90;;;;;;4890079;29;20443;-68
2021/05/21 11:00:21;;;;;;;8.90;5.70;;;15.60;99.90;;;;;;4882594;29;20966;-67
2021/05/21 11:02:49;;;;;;;4.77;4.33;;;15.60;99.90;;;;;;4890759;29;20487;-68
2021/05/21 11:05:31;;;;;;;3.17;2.60;;;15.70;99.90;;;;;;4888203;29;20218;-67
2021/05/21 11:08:03;;;;;;;4.60;3.40;;;15.80;99.90;;;;;;4895498;29;20474;-67
2021/05/21 11:10:32;;;;;;;7.23;4.33;;;16.00;99.90;;;;;;4902085;29;21033;-67
2021/05/21 11:13:10;;;;;;;3.63;2.30;;;16.20;99.90;;;;;;4884328;29;20454;-67
2021/05/21 11:15:47;;;;;;;2.63;1.40;;;16.30;99.90;;;;;;4888068;29;20443;-66
2021/05/21 11:18:16;;;;;;;6.20;4.97;;;16.40;99.90;;;;;;4895190;29;20459;-67
2021/05/21 11:20:55;;;;;;;3.90;1.67;;;16.30;99.90;;;;;;4893977;29;20466;-67
2021/05/21 11:23:27;;;;;;;3.57;1.90;;;16.30;99.90;;;;;;4881150;29;20446;-68
2021/05/21 11:26:21;;;;;;;6.03;4.13;;;16.40;99.90;;;;;;4880920;29;20518;-67
2021/05/21 11:28:53;;;;;;;1.60;1.50;;;16.40;99.90;;;;;;4891173;29;20466;-66
2021/05/21 11:31:22;;;;;;;2.50;1.30;;;16.40;99.90;;;;;;4892433;29;20463;-66
2021/05/21 11:33:50;;;;;;;4.40;1.60;;;16.30;99.90;;;;;;4893737;29;20435;-67
2021/05/21 11:36:16;;;;;;;1.97;1.50;;;16.20;99.90;;;;;;4894999;29;20432;-67
2021/05/21 11:38:42;;;;;;;2.43;0.90;;;16.40;99.90;;;;;;4894964;29;21063;-66
2021/05/21 11:41:11;;;;;;;1.83;1.73;;;16.70;99.90;;;;;;4891996;29;20435;-66
2021/05/21 11:43:45;;;;;;;1.47;1.10;;;16.70;99.90;;;;;;4886607;29;20546;-66
2021/05/21 11:46:14;;;;;;;3.23;1.67;;;17.00;99.90;;;;;;4890577;29;20436;-67
2021/05/21 11:48:41;;;;;;;1.80;1.47;;;17.00;99.90;;;;;;4884282;29;20973;-67
2021/05/21 11:51:16;;;;;;;1.87;1.77;;;16.90;99.90;;;;;;4886366;29;20439;-66
2021/05/21 11:54:02;;;;;;;1.30;1.20;;;16.90;99.90;;;;;;4887208;29;20497;-67
2021/05/21 11:56:35;;;;;;;1.80;1.70;;;16.60;99.90;;;;;;4887359;29;20908;-66
2021/05/21 11:59:05;;;;;;;1.80;1.10;;;16.40;99.90;;;;;;4894487;29;20462;-67
2021/05/21 12:01:32;;;;;;;3.67;1.63;;;16.30;99.90;;;;;;4892490;29;20789;-67
2021/05/21 12:04:05;;;;;;;1.40;1.30;;;16.10;99.90;;;;;;4884754;29;20849;-67
2021/05/21 12:06:32;;;;;;;1.43;1.10;;;16.10;99.90;;;;;;4889042;29;20502;-67
2021/05/21 12:08:58;;;;;;;4.10;1.50;;;16.00;99.90;;;;;;4878921;29;20460;-66
2021/05/21 12:11:26;;;;;;;1.40;1.30;;;15.90;99.90;;;;;;4884538;29;20446;-67
2021/05/21 12:14:09;;;;;;;1.77;1.33;;;16.00;99.90;;;;;;4894405;29;20434;-66
2021/05/21 12:16:36;;;;;;;2.90;2.70;;;16.00;99.90;;;;;;4891825;29;20446;-66
2021/05/21 12:19:04;;;;;;;1.63;1.50;;;16.10;99.90;;;;;;4897299;29;20466;-66
2021/05/21 12:21:32;;;;;;;2.70;1.80;;;16.10;99.90;;;;;;4891815;29;20480;-66
2021/05/21 12:23:59;;;;;;;2.63;1.70;;;16.00;99.90;;;;;;4894146;29;20814;-66
2021/05/21 12:26:28;;;;;;;3.23;2.10;;;16.00;99.90;;;;;;4895068;29;20461;-66
2021/05/21 12:28:56;;;;;;;2.40;2.20;;;16.00;99.90;;;;;;4883157;29;21215;-67
2021/05/21 12:31:28;;;;;;;2.00;1.40;;;16.10;99.90;;;;;;4891184;29;20433;-66
2021/05/21 12:33:55;;;;;;;3.47;1.60;;;15.90;99.90;;;;;;4897871;29;20942;-66
2021/05/21 12:36:28;;;;;;;1.73;1.30;;;15.90;99.90;;;;;;4901303;29;20435;-66
2021/05/21 12:38:56;;;;;;;1.90;1.40;;;16.00;99.90;;;;;;4900837;29;20574;-66
2021/05/21 12:41:36;;;;;;;2.97;1.73;;;15.90;99.90;;;;;;4897974;29;20465;-66
2021/05/21 12:44:14;;;;;;;1.70;1.20;;;15.80;99.90;;;;;;4895783;29;20558;-66
2021/05/21 12:46:45;;;;;;;2.20;1.43;;;15.80;99.90;;;;;;4898328;29;20882;-66
2021/05/21 12:49:12;;;;;;;1.90;1.20;;;15.80;99.90;;;;;;4896539;29;20457;-66